createdAt,value
2023-04-19T00:00:09.635Z,95122.09
2023-04-19T00:02:38.021Z,95128.78
2023-04-19T00:05:06.402Z,95118.41
2023-04-19T00:07:33.680Z,95104.91
2023-04-19T00:10:00.634Z,95098.75
2023-04-19T00:12:27.529Z,95078.41
2023-04-19T00:14:54.268Z,95110.91
2023-04-19T00:17:21.321Z,95121.78
2023-04-19T00:19:49.520Z,95100.59
2023-04-19T00:22:17.878Z,95099.63
2023-04-19T00:24:44.655Z,95085.09
2023-04-19T00:27:11.466Z,95098.88
2023-04-19T00:29:39.205Z,95097.22
2023-04-19T00:32:06.196Z,95092.13
2023-04-19T00:34:33.922Z,95097.06
2023-04-19T00:37:01.292Z,95093.81
2023-04-19T00:39:28.327Z,95082.47
2023-04-19T00:41:57.418Z,95097.34
2023-04-19T00:44:24.533Z,95089.91
2023-04-19T00:46:52.548Z,95088.19
2023-04-19T00:49:21.020Z,95092.72
2023-04-19T00:51:50.857Z,95089.53
2023-04-19T00:54:19.683Z,95082.47
2023-04-19T00:56:49.781Z,95079.19
2023-04-19T00:59:18.464Z,95086.75
2023-04-19T01:01:45.375Z,95075.94
2023-04-19T01:04:12.412Z,95093.38
2023-04-19T01:06:40.691Z,95076.66
2023-04-19T01:09:10.819Z,95083.22
2023-04-19T01:11:42.541Z,95079.38
2023-04-19T01:14:10.033Z,95070.41
2023-04-19T01:16:36.874Z,95082.13
2023-04-19T01:19:04.807Z,95073.63
2023-04-19T01:21:32.564Z,95069.63
2023-04-19T01:23:59.491Z,95076.81
2023-04-19T01:26:26.779Z,95068.53
2023-04-19T01:28:54.428Z,95063.28
2023-04-19T01:31:21.510Z,95065.09
2023-04-19T01:33:48.892Z,95073.34
2023-04-19T01:36:15.843Z,95066.00
2023-04-19T01:38:42.677Z,95052.97
2023-04-19T01:41:10.024Z,95053.19
2023-04-19T01:43:36.752Z,95047.34
2023-04-19T01:46:03.789Z,95043.16
2023-04-19T01:48:30.985Z,95053.22
2023-04-19T01:50:57.813Z,95060.56
2023-04-19T01:53:24.483Z,95048.31
2023-04-19T01:55:51.607Z,95032.00
2023-04-19T01:58:20.411Z,95027.78
2023-04-19T02:00:47.298Z,95038.81
2023-04-19T02:03:14.464Z,95043.88
2023-04-19T02:05:42.593Z,95045.31
2023-04-19T02:08:09.342Z,95034.88
2023-04-19T02:10:36.053Z,95046.25
2023-04-19T02:13:02.829Z,95044.38
2023-04-19T02:15:29.649Z,95029.94
2023-04-19T02:17:56.371Z,95036.22
2023-04-19T02:20:24.579Z,95037.94
2023-04-19T02:22:51.736Z,95029.09
2023-04-19T02:25:19.512Z,95013.03
2023-04-19T02:27:46.345Z,95025.25
2023-04-19T02:30:13.364Z,95020.88
2023-04-19T02:32:40.266Z,95009.69
2023-04-19T02:35:07.379Z,95003.28
2023-04-19T02:37:34.336Z,95018.03
2023-04-19T02:40:01.200Z,95008.09
2023-04-19T02:42:29.287Z,94973.47
2023-04-19T02:44:56.175Z,95012.06
2023-04-19T02:47:24.346Z,94999.53
2023-04-19T02:49:51.173Z,94999.41
2023-04-19T02:52:19.351Z,95008.19
2023-04-19T02:54:46.035Z,95000.91
2023-04-19T02:57:12.831Z,94989.78
2023-04-19T02:59:41.458Z,94992.38
2023-04-19T03:02:08.241Z,94986.38
2023-04-19T03:04:36.611Z,94993.19
2023-04-19T03:07:03.774Z,94986.44
2023-04-19T03:09:31.088Z,94999.41
2023-04-19T03:11:58.080Z,94984.25
2023-04-19T03:14:24.910Z,94975.47
2023-04-19T03:16:52.438Z,94979.47
2023-04-19T03:19:19.544Z,94988.34
2023-04-19T03:21:51.078Z,94977.56
2023-04-19T03:24:20.833Z,94975.38
2023-04-19T03:26:51.159Z,94985.50
2023-04-19T03:29:23.121Z,94963.56
2023-04-19T03:32:09.267Z,94972.78
2023-04-19T03:34:36.554Z,94962.78
2023-04-19T03:37:03.521Z,94964.50
2023-04-19T03:39:32.135Z,94960.16
2023-04-19T03:42:03.055Z,94971.84
2023-04-19T03:44:50.110Z,94967.44
2023-04-19T03:47:18.533Z,94971.25
2023-04-19T03:49:48.834Z,94964.28
2023-04-19T03:52:17.123Z,94957.06
2023-04-19T03:54:46.788Z,94957.31
2023-04-19T03:57:30.146Z,94966.66
2023-04-19T03:59:58.877Z,94956.97
2023-04-19T04:02:25.751Z,94979.44
2023-04-19T04:04:56.293Z,94959.19
2023-04-19T04:07:24.742Z,94962.38
2023-04-19T04:09:51.950Z,94956.72
2023-04-19T04:12:18.836Z,94961.47
2023-04-19T04:14:46.188Z,94949.00
2023-04-19T04:17:13.776Z,94956.34
2023-04-19T04:19:40.935Z,94964.31
2023-04-19T04:22:08.092Z,94969.59
2023-04-19T04:24:44.222Z,94972.25
2023-04-19T04:27:34.036Z,94960.72
2023-04-19T04:30:01.997Z,94971.91
2023-04-19T04:32:35.840Z,94973.41
2023-04-19T04:35:04.107Z,94975.63
2023-04-19T04:37:45.228Z,94968.38
2023-04-19T04:40:12.155Z,94968.50
2023-04-19T04:42:39.082Z,94968.66
2023-04-19T04:45:07.339Z,94973.75
2023-04-19T04:47:37.074Z,94968.53
2023-04-19T04:50:07.495Z,94977.00
2023-04-19T04:52:34.375Z,94958.69
2023-04-19T04:55:09.662Z,94965.41
2023-04-19T04:57:41.448Z,94960.84
2023-04-19T05:00:13.300Z,94970.66
2023-04-19T05:02:49.765Z,94960.41
2023-04-19T05:05:17.100Z,94959.91
2023-04-19T05:07:43.738Z,94967.59
2023-04-19T05:10:10.768Z,94968.00
2023-04-19T05:12:44.650Z,94952.00
2023-04-19T05:15:12.126Z,94961.81
2023-04-19T05:17:43.540Z,94954.78
2023-04-19T05:20:10.956Z,94959.13
2023-04-19T05:22:38.668Z,94963.88
2023-04-19T05:25:10.757Z,94972.41
2023-04-19T05:27:38.585Z,94965.09
2023-04-19T05:30:07.780Z,94958.56
2023-04-19T05:32:39.262Z,94953.81
2023-04-19T05:35:09.246Z,94958.25
2023-04-19T05:37:37.345Z,94947.66
2023-04-19T05:40:10.212Z,94954.94
2023-04-19T05:42:38.765Z,94958.97
2023-04-19T05:45:07.539Z,94955.97
2023-04-19T05:47:34.574Z,94947.78
2023-04-19T05:50:24.388Z,94951.00
2023-04-19T05:53:14.082Z,94954.75
2023-04-19T05:55:41.232Z,94948.38
2023-04-19T05:58:08.180Z,94948.03
2023-04-19T06:00:35.155Z,94948.63
2023-04-19T06:03:09.371Z,94952.72
2023-04-19T06:05:36.473Z,94957.00
2023-04-19T06:08:03.639Z,94936.41
2023-04-19T06:10:40.275Z,94958.22
2023-04-19T06:13:16.214Z,94940.78
2023-04-19T06:15:43.094Z,94943.75
2023-04-19T06:18:11.156Z,94957.28
2023-04-19T06:20:47.301Z,94964.81
2023-04-19T06:23:14.965Z,94943.72
2023-04-19T06:25:41.995Z,94951.13
2023-04-19T06:28:09.149Z,94934.34
2023-04-19T06:30:35.921Z,94942.59
2023-04-19T06:33:03.292Z,94944.16
2023-04-19T06:35:30.171Z,94940.09
2023-04-19T06:37:56.846Z,94932.22
2023-04-19T06:40:23.578Z,94949.38
2023-04-19T06:42:50.400Z,94946.38
2023-04-19T06:45:17.491Z,94942.47
2023-04-19T06:47:44.467Z,94954.78
2023-04-19T06:50:11.658Z,94950.66
2023-04-19T06:52:39.324Z,94950.16
2023-04-19T06:55:07.853Z,94956.97
2023-04-19T06:57:34.931Z,94951.34
2023-04-19T07:00:04.546Z,94947.63
2023-04-19T07:02:31.873Z,94953.25
2023-04-19T07:04:58.777Z,94947.94
2023-04-19T07:07:25.489Z,94952.44
2023-04-19T07:09:52.402Z,94954.81
2023-04-19T07:12:19.172Z,94951.56
2023-04-19T07:14:45.923Z,94952.84
2023-04-19T07:17:13.923Z,94938.00
2023-04-19T07:19:40.785Z,94942.94
2023-04-19T07:22:08.520Z,94949.69
2023-04-19T07:24:35.644Z,94947.47
2023-04-19T07:27:02.661Z,94938.03
2023-04-19T07:29:29.792Z,94936.03
2023-04-19T07:31:56.623Z,94935.78
2023-04-19T07:34:23.915Z,94936.09
2023-04-19T07:36:50.889Z,94926.00
2023-04-19T07:39:18.177Z,94933.38
2023-04-19T07:41:46.420Z,94929.28
2023-04-19T07:44:13.674Z,94934.81
2023-04-19T07:46:44.679Z,94930.59
2023-04-19T07:49:11.515Z,94932.34
2023-04-19T07:51:39.027Z,94934.41
2023-04-19T07:54:06.085Z,94917.72
2023-04-19T07:56:33.765Z,94928.63
2023-04-19T07:59:07.411Z,94918.09
2023-04-19T08:01:35.726Z,94919.56
2023-04-19T08:04:03.158Z,94932.84
2023-04-19T08:06:30.910Z,94919.53
2023-04-19T08:08:57.700Z,94909.41
2023-04-19T08:11:25.428Z,94929.41
2023-04-19T08:14:04.758Z,94926.81
2023-04-19T08:19:09.566Z,94930.25
2023-04-19T08:21:41.082Z,94928.09
2023-04-19T08:24:09.381Z,94925.13
2023-04-19T08:26:36.537Z,94915.34
2023-04-19T08:29:03.693Z,94916.66
2023-04-19T08:31:30.566Z,94911.19
2023-04-19T08:33:58.552Z,94915.97
2023-04-19T08:36:37.003Z,94916.91
2023-04-19T08:39:12.249Z,94910.34
2023-04-19T08:41:48.081Z,94906.38
2023-04-19T08:44:32.521Z,94910.25
2023-04-19T08:47:02.910Z,94894.75
2023-04-19T08:49:30.293Z,94904.16
2023-04-19T08:52:01.362Z,94896.09
2023-04-19T08:54:29.971Z,94891.88
2023-04-19T08:57:00.677Z,94904.53
2023-04-19T08:59:28.829Z,94894.03
2023-04-19T09:01:56.705Z,94890.03
2023-04-19T09:04:36.296Z,94871.75
2023-04-19T09:07:04.150Z,94884.34
2023-04-19T09:09:37.096Z,94889.38
2023-04-19T09:12:18.487Z,94887.53
2023-04-19T09:15:01.258Z,94885.16
2023-04-19T09:17:29.770Z,94865.44
2023-04-19T09:19:57.287Z,94849.16
2023-04-19T09:22:25.434Z,94872.69
2023-04-19T09:27:33.522Z,94877.53
2023-04-19T09:30:02.862Z,94862.69
2023-04-19T09:32:45.012Z,94874.31
2023-04-19T09:35:12.013Z,94868.13
2023-04-19T09:38:04.048Z,94865.78
2023-04-19T09:40:28.575Z,94871.75
2023-04-19T09:43:08.924Z,94864.19
2023-04-19T09:45:44.192Z,94854.38
2023-04-19T09:48:12.713Z,94856.31
2023-04-19T09:51:04.994Z,94849.06
2023-04-19T09:53:35.083Z,94868.84
2023-04-19T09:56:03.967Z,94832.09
2023-04-19T09:58:46.101Z,94862.16
2023-04-19T10:01:17.461Z,94843.03
2023-04-19T10:03:50.369Z,94834.66
2023-04-19T10:08:50.833Z,94849.34
2023-04-19T10:11:21.867Z,94821.28
2023-04-19T10:13:54.208Z,94837.13
2023-04-19T10:16:21.089Z,94834.66
2023-04-19T10:18:50.435Z,94824.22
2023-04-19T10:21:19.405Z,94817.22
2023-04-19T10:23:47.373Z,94830.25
2023-04-19T10:26:14.311Z,94805.63
2023-04-19T10:28:42.410Z,94839.25
2023-04-19T10:31:13.364Z,94823.13
2023-04-19T10:33:41.964Z,94820.75
2023-04-19T10:36:10.880Z,94795.38
2023-04-19T10:38:38.189Z,94819.66
2023-04-19T10:41:14.421Z,94815.91
2023-04-19T10:44:08.410Z,94776.56
2023-04-19T10:46:36.316Z,94790.00
2023-04-19T10:49:05.537Z,94787.34
2023-04-19T10:51:39.464Z,94798.72
2023-04-19T10:54:31.978Z,94765.97
2023-04-19T10:57:02.258Z,94771.69
2023-04-19T10:59:37.020Z,94774.63
2023-04-19T11:02:06.369Z,94763.63
2023-04-19T11:04:33.263Z,94772.75
2023-04-19T11:07:01.853Z,94770.81
2023-04-19T11:09:34.655Z,94748.69
2023-04-19T11:12:09.708Z,94753.53
2023-04-19T11:14:52.130Z,94743.91
2023-04-19T11:17:28.015Z,94748.16
2023-04-19T11:19:56.382Z,94765.72
2023-04-19T11:22:44.722Z,94761.69
2023-04-19T11:25:14.207Z,94753.81
2023-04-19T11:27:43.098Z,94754.00
2023-04-19T11:30:14.916Z,94693.69
2023-04-19T11:32:46.898Z,94763.59
2023-04-19T11:35:14.269Z,94731.84
2023-04-19T11:37:41.480Z,94744.53
2023-04-19T11:40:10.122Z,94677.41
2023-04-19T11:42:37.002Z,94696.38
2023-04-19T11:45:03.985Z,94706.50
2023-04-19T11:47:32.337Z,94706.41
2023-04-19T11:50:31.012Z,94723.69
2023-04-19T11:52:59.196Z,94718.94
2023-04-19T11:55:26.715Z,94685.00
2023-04-19T11:57:53.612Z,94698.94
2023-04-19T12:00:28.946Z,94692.66
2023-04-19T12:02:56.901Z,94707.09
2023-04-19T12:05:24.513Z,94724.75
2023-04-19T12:08:05.006Z,94721.19
2023-04-19T12:10:32.992Z,94726.34
2023-04-19T12:12:59.965Z,94725.09
2023-04-19T12:15:43.459Z,94721.44
2023-04-19T12:18:10.673Z,94725.97
2023-04-19T12:20:43.920Z,94704.00
2023-04-19T12:23:16.905Z,94723.06
2023-04-19T12:25:46.457Z,94724.09
2023-04-19T12:28:14.635Z,94712.69
2023-04-19T12:30:42.530Z,94718.16
2023-04-19T12:33:10.792Z,94721.16
2023-04-19T12:35:38.658Z,94728.59
2023-04-19T12:38:05.753Z,94727.69
2023-04-19T12:40:32.695Z,94724.22
2023-04-19T12:42:59.460Z,94721.41
2023-04-19T12:45:27.460Z,94715.16
2023-04-19T12:47:54.392Z,94707.63
2023-04-19T12:50:21.819Z,94702.00
2023-04-19T12:52:48.679Z,94706.06
2023-04-19T12:55:15.613Z,94704.81
2023-04-19T12:57:42.578Z,94713.03
2023-04-19T13:00:11.109Z,94700.22
2023-04-19T13:02:38.465Z,94701.34
2023-04-19T13:05:06.618Z,94704.69
2023-04-19T13:07:33.496Z,94708.50
2023-04-19T13:10:00.353Z,94707.91
2023-04-19T13:12:28.720Z,94691.16
2023-04-19T13:14:56.223Z,94706.16
2023-04-19T13:17:23.007Z,94704.03
2023-04-19T13:19:49.942Z,94690.13
2023-04-19T13:22:16.779Z,94680.00
2023-04-19T13:24:44.024Z,94694.63
2023-04-19T13:27:11.346Z,94684.34
2023-04-19T13:29:38.195Z,94691.72
2023-04-19T13:32:07.831Z,94687.16
2023-04-19T13:34:35.109Z,94695.22
2023-04-19T13:37:01.778Z,94693.41
2023-04-19T13:39:29.066Z,94675.03
2023-04-19T13:41:56.295Z,94680.41
2023-04-19T13:44:25.335Z,94678.09
2023-04-19T13:46:52.363Z,94680.06
2023-04-19T13:49:19.291Z,94671.81
2023-04-19T13:51:50.049Z,94675.53
2023-04-19T13:54:18.556Z,94661.59
2023-04-19T13:56:45.916Z,94673.94
2023-04-19T13:59:13.301Z,94664.66
2023-04-19T14:01:41.709Z,94675.41
2023-04-19T14:04:08.529Z,94657.19
2023-04-19T14:06:35.481Z,94669.38
2023-04-19T14:09:02.213Z,94675.59
2023-04-19T14:11:29.529Z,94678.44
2023-04-19T14:13:56.705Z,94682.31
2023-04-19T14:16:25.539Z,94678.66
2023-04-19T14:18:52.915Z,94683.09
2023-04-19T14:21:19.859Z,94679.78
2023-04-19T14:23:46.682Z,94676.56
2023-04-19T14:26:14.950Z,94674.41
2023-04-19T14:28:41.864Z,94679.78
2023-04-19T14:31:08.635Z,94652.63
2023-04-19T14:33:35.337Z,94655.06
2023-04-19T14:36:02.166Z,94660.13
2023-04-19T14:38:29.011Z,94659.94
2023-04-19T14:40:57.004Z,94669.75
2023-04-19T14:43:23.741Z,94663.97
2023-04-19T14:45:51.774Z,94660.19
2023-04-19T14:48:21.466Z,94673.34
2023-04-19T14:50:49.254Z,94678.53
2023-04-19T14:53:16.258Z,94680.44
2023-04-19T14:55:43.800Z,94673.53
2023-04-19T14:58:10.766Z,94668.88
2023-04-19T15:00:37.571Z,94674.78
2023-04-19T15:03:05.098Z,94683.03
2023-04-19T15:05:35.642Z,94685.41
2023-04-19T15:08:02.632Z,94690.59
2023-04-19T15:10:29.883Z,94691.22
2023-04-19T15:12:57.259Z,94685.41
2023-04-19T15:15:23.969Z,94689.66
2023-04-19T15:17:51.178Z,94681.03
2023-04-19T15:20:18.048Z,94680.13
2023-04-19T15:22:45.084Z,94691.00
2023-04-19T15:25:12.567Z,94693.84
2023-04-19T15:27:39.346Z,94692.91
2023-04-19T15:30:07.013Z,94694.34
2023-04-19T15:32:36.794Z,94704.22
2023-04-19T15:35:03.999Z,94720.19
2023-04-19T15:37:30.764Z,94703.91
2023-04-19T15:39:57.692Z,94731.25
2023-04-19T15:42:24.399Z,94728.38
2023-04-19T15:44:51.252Z,94723.78
2023-04-19T15:47:18.043Z,94732.03
2023-04-19T15:49:47.362Z,94727.94
2023-04-19T15:52:14.226Z,94728.22
2023-04-19T15:54:41.107Z,94735.91
2023-04-19T15:57:08.230Z,94739.88
2023-04-19T15:59:34.948Z,94736.88
2023-04-19T16:02:01.815Z,94746.56
2023-04-19T16:04:29.507Z,94757.44
2023-04-19T16:06:56.560Z,94755.03
2023-04-19T16:09:23.699Z,94766.50
2023-04-19T16:11:50.564Z,94747.69
2023-04-19T16:14:17.590Z,94761.56
2023-04-19T16:16:44.494Z,94771.00
2023-04-19T16:19:11.655Z,94792.69
2023-04-19T16:21:38.665Z,94758.22
2023-04-19T16:24:06.022Z,94763.59
2023-04-19T16:26:34.111Z,94766.56
2023-04-19T16:29:01.365Z,94780.97
2023-04-19T16:31:29.196Z,94767.09
2023-04-19T16:33:56.370Z,94780.59
2023-04-19T16:36:23.631Z,94751.59
2023-04-19T16:38:50.358Z,94777.69
2023-04-19T16:41:17.137Z,94767.44
2023-04-19T16:43:44.950Z,94776.34
2023-04-19T16:46:11.931Z,94779.75
2023-04-19T16:48:39.050Z,94780.41
2023-04-19T16:51:06.015Z,94780.59
2023-04-19T16:53:32.802Z,94782.81
2023-04-19T16:56:00.414Z,94802.88
2023-04-19T16:58:27.199Z,94794.72
2023-04-19T17:00:54.272Z,94795.41
2023-04-19T17:03:21.973Z,94804.44
2023-04-19T17:05:48.842Z,94784.19
2023-04-19T17:08:15.998Z,94788.03
2023-04-19T17:10:42.703Z,94795.03
2023-04-19T17:13:10.503Z,94778.53
2023-04-19T17:15:38.505Z,94800.22
2023-04-19T17:18:05.725Z,94799.03
2023-04-19T17:20:32.695Z,94812.84
2023-04-19T17:23:00.429Z,94794.03
2023-04-19T17:25:27.441Z,94815.72
2023-04-19T17:27:54.996Z,94786.13
2023-04-19T17:30:21.825Z,94781.25
2023-04-19T17:32:48.742Z,94792.19
2023-04-19T17:35:15.993Z,94783.88
2023-04-19T17:37:44.000Z,94786.00
2023-04-19T17:40:11.481Z,94775.72
2023-04-19T17:42:38.263Z,94780.38
2023-04-19T17:45:10.790Z,94773.44
2023-04-19T17:47:40.876Z,94791.19
2023-04-19T17:50:10.456Z,94768.16
2023-04-19T17:52:37.754Z,94783.69
2023-04-19T17:55:05.111Z,94777.22
2023-04-19T17:57:33.836Z,94786.06
2023-04-19T18:00:06.496Z,94793.16
2023-04-19T18:02:36.019Z,94776.75
2023-04-19T18:05:03.148Z,94776.88
2023-04-19T18:07:30.990Z,94774.28
2023-04-19T18:09:57.983Z,94782.97
2023-04-19T18:12:24.983Z,94779.31
2023-04-19T18:14:51.797Z,94788.25
2023-04-19T18:17:18.699Z,94787.88
2023-04-19T18:19:46.471Z,94783.03
2023-04-19T18:22:13.308Z,94770.56
2023-04-19T18:24:46.161Z,94768.91
2023-04-19T18:27:13.456Z,94750.72
2023-04-19T18:29:40.834Z,94768.72
2023-04-19T18:32:07.684Z,94768.28
2023-04-19T18:34:34.697Z,94784.56
2023-04-19T18:37:05.013Z,94743.97
2023-04-19T18:39:32.132Z,94748.59
2023-04-19T18:41:58.926Z,94762.13
2023-04-19T18:44:49.458Z,94761.50
2023-04-19T18:47:13.535Z,94764.22
2023-04-19T18:49:40.731Z,94753.59
2023-04-19T18:52:07.497Z,94767.63
2023-04-19T18:54:34.339Z,94778.84
2023-04-19T18:59:31.745Z,94773.41
2023-04-19T19:01:58.885Z,94766.66
2023-04-19T19:04:46.798Z,94786.19
2023-04-19T19:07:27.810Z,94778.94
2023-04-19T19:10:03.949Z,94772.16
2023-04-19T19:12:42.858Z,94763.81
2023-04-19T19:15:10.449Z,94750.22
2023-04-19T19:17:38.149Z,94787.16
2023-04-19T19:20:06.782Z,94768.13
2023-04-19T19:22:34.107Z,94765.50
2023-04-19T19:25:01.937Z,94774.09
2023-04-19T19:27:29.269Z,94760.19
2023-04-19T19:29:58.949Z,94777.06
2023-04-19T19:32:26.200Z,94768.59
2023-04-19T19:35:00.450Z,94772.94
2023-04-19T19:37:29.476Z,94759.72
2023-04-19T19:39:57.305Z,94789.28
2023-04-19T19:42:25.153Z,94797.38
2023-04-19T19:44:55.737Z,94791.91
2023-04-19T19:47:24.070Z,94809.25
2023-04-19T19:50:34.855Z,94796.16
2023-04-19T19:52:37.988Z,94774.47
2023-04-19T19:55:05.165Z,94782.22
2023-04-19T19:58:18.638Z,94786.25
2023-04-19T20:00:42.074Z,94798.81
2023-04-19T20:03:06.637Z,94777.78
2023-04-19T20:05:34.173Z,94752.97
2023-04-19T20:08:10.369Z,94769.59
2023-04-19T20:10:42.456Z,94758.84
2023-04-19T20:13:09.493Z,94752.13
2023-04-19T20:15:37.676Z,94770.63
2023-04-19T20:18:05.560Z,94769.81
2023-04-19T20:20:32.471Z,94737.53
2023-04-19T20:22:59.552Z,94721.34
2023-04-19T20:25:26.831Z,94745.06
2023-04-19T20:27:54.300Z,94773.84
2023-04-19T20:30:21.215Z,94757.16
2023-04-19T20:32:50.262Z,94760.75
2023-04-19T20:35:17.574Z,94726.25
2023-04-19T20:37:47.793Z,94722.91
2023-04-19T20:40:16.133Z,94748.38
2023-04-19T20:42:43.609Z,94734.97
2023-04-19T20:45:11.097Z,94722.25
2023-04-19T20:47:38.445Z,94728.47
2023-04-19T20:50:07.657Z,94730.16
2023-04-19T20:52:35.211Z,94766.09
2023-04-19T20:55:02.705Z,94754.34
2023-04-19T20:57:29.542Z,94750.78
2023-04-19T20:59:57.062Z,94752.25
2023-04-19T21:02:23.886Z,94738.81
2023-04-19T21:04:50.849Z,94755.81
2023-04-19T21:07:17.907Z,94727.38
2023-04-19T21:09:44.620Z,94748.69
2023-04-19T21:12:11.881Z,94754.19
2023-04-19T21:14:38.731Z,94748.72
2023-04-19T21:17:06.056Z,94731.75
2023-04-19T21:19:33.044Z,94725.69
2023-04-19T21:21:59.818Z,94717.28
2023-04-19T21:24:26.682Z,94728.97
2023-04-19T21:26:53.465Z,94721.31
2023-04-19T21:29:20.989Z,94705.09
2023-04-19T21:31:48.182Z,94727.47
2023-04-19T21:34:15.174Z,94721.44
2023-04-19T21:36:42.256Z,94701.00
2023-04-19T21:39:10.216Z,94713.13
2023-04-19T21:41:37.679Z,94707.16
2023-04-19T21:44:05.068Z,94712.00
2023-04-19T21:46:32.574Z,94707.44
2023-04-19T21:48:59.362Z,94704.34
2023-04-19T21:51:26.309Z,94695.59
2023-04-19T21:53:53.143Z,94718.03
2023-04-19T21:56:19.894Z,94694.28
2023-04-19T21:58:47.720Z,94674.38
2023-04-19T22:01:14.583Z,94672.81
2023-04-19T22:03:41.736Z,94676.03
2023-04-19T22:06:08.594Z,94675.09
2023-04-19T22:08:35.427Z,94692.25
2023-04-19T22:11:02.904Z,94710.59
2023-04-19T22:13:30.771Z,94695.22
2023-04-19T22:15:57.696Z,94700.16
2023-04-19T22:18:24.475Z,94683.34
2023-04-19T22:20:52.124Z,94701.53
2023-04-19T22:23:19.162Z,94662.00
2023-04-19T22:25:46.169Z,94678.75
2023-04-19T22:28:13.161Z,94698.59
2023-04-19T22:30:39.866Z,94694.84
2023-04-19T22:33:06.691Z,94677.44
2023-04-19T22:35:33.830Z,94689.00
2023-04-19T22:38:01.026Z,94684.53
2023-04-19T22:40:28.164Z,94692.75
2023-04-19T22:42:54.865Z,94665.56
2023-04-19T22:45:21.533Z,94641.31
2023-04-19T22:47:48.928Z,94653.19
2023-04-19T22:50:16.142Z,94700.22
2023-04-19T22:52:44.597Z,94680.41
2023-04-19T22:55:11.577Z,94640.88
2023-04-19T22:57:38.784Z,94669.84
2023-04-19T23:00:07.068Z,94633.66
2023-04-19T23:02:34.220Z,94671.13
2023-04-19T23:05:01.305Z,94679.66
2023-04-19T23:07:28.933Z,94654.94
2023-04-19T23:09:56.251Z,94670.47
2023-04-19T23:12:24.120Z,94668.41
2023-04-19T23:14:51.009Z,94660.63
2023-04-19T23:17:18.867Z,94646.31
2023-04-19T23:19:45.590Z,94628.97
2023-04-19T23:22:12.490Z,94642.25
2023-04-19T23:24:40.296Z,94653.19
2023-04-19T23:27:07.041Z,94642.41
2023-04-19T23:29:34.212Z,94647.25
2023-04-19T23:32:01.957Z,94630.56
2023-04-19T23:34:29.200Z,94619.22
2023-04-19T23:36:56.800Z,94610.69
2023-04-19T23:39:23.950Z,94598.47
2023-04-19T23:41:50.711Z,94602.78
2023-04-19T23:44:17.939Z,94613.13
2023-04-19T23:46:44.838Z,94624.59
2023-04-19T23:49:12.226Z,94592.97
2023-04-19T23:51:39.082Z,94633.72
2023-04-19T23:54:06.160Z,94605.59
2023-04-19T23:56:33.063Z,94627.31
2023-04-19T23:58:59.843Z,94616.94
